This is the latest recevied weather packets stored in our database for station/object K9RCP-24. If no packets are shown the sender has not sent any weather packets the latest 10 day(s).
| Time | Temp. | Humidity | Pressure | Rain* | Wind** | Luminosity | Snow |
|---|---|---|---|---|---|---|---|
| 1777524379 | 17.22° C | 49% | 1023.7 hPa | 0 mm | - | - | - |
| 1777522449 | 17.78° C | 49% | 1024 hPa | 0 mm | - | - | - |
| 1777521385 | -17.78° C | 100% | 1023.7 hPa | 0 mm | - | - | - |
| 1777520754 | 16.11° C | 56% | 1023.4 hPa | 0 mm | - | - | - |
| 1777519635 | 17.22° C | 53% | 1023.4 hPa | 0 mm | - | - | - |
| 1777519511 | 17.22° C | 53% | 1023.4 hPa | 0 mm | - | - | - |
| 1777519262 | 17.78° C | 51% | 1023.4 hPa | 0 mm | - | - | - |
| 1777518764 | 18.33° C | 50% | 1023.4 hPa | 0 mm | - | - | - |
| 1777518200 | 18.89° C | 48% | 1023.4 hPa | 0 mm | - | - | - |
| 1777517452 | 19.44° C | 46% | 1023.4 hPa | 0 mm | - | - | - |
| 1777517201 | 20° C | 45% | 1023.4 hPa | 0 mm | - | - | - |
| 1777516694 | 20.56° C | 43% | 1023.4 hPa | 0 mm | - | - | - |
| 1777515353 | 21.11° C | 40% | 1023.4 hPa | 0 mm | - | - | - |
| 1777515230 | 21.11° C | 40% | 1023.4 hPa | 0 mm | - | - | - |
| 1777513793 | 21.67° C | 38% | 1023.4 hPa | 0 mm | - | - | - |
| 1777513670 | 21.67° C | 38% | 1023.4 hPa | 0 mm | - | - | - |
| 1777513015 | 22.22° C | 37% | 1024 hPa | 0 mm | - | - | - |
| 1777512891 | 22.22° C | 37% | 1023.7 hPa | 0 mm | - | - | - |
| 1777512611 | 21.67° C | 37% | 1024 hPa | 0 mm | - | - | - |
| 1777511858 | 22.22° C | 36% | 1024 hPa | 0 mm | - | - | - |
| 1777511735 | 21.67° C | 37% | 1024 hPa | 0 mm | - | - | - |
| 1777509890 | 21.67° C | 37% | 1024 hPa | 0 mm | - | - | - |
| 1777508988 | 21.67° C | 37% | 1024.4 hPa | 0 mm | - | - | - |
| 1777508492 | 21.67° C | 36% | 1024.4 hPa | 0 mm | - | - | - |
| 1777508214 | 21.67° C | 37% | 1024.4 hPa | 0 mm | - | - | - |
* Rain latest hour (hover to see other rain measurements)
** Current wind speed in m/s (hover to see current wind gust speed)